Time;durP1;ratioP1;P1;durP2;ratioP2;P2;SDS_P1;SDS_P2;PMS_P1;PMS_P2;Temp;Humidity;BMP_temperature;BMP_pressure;BME280_temperature;BME280_humidity;BME280_pressure;Samples;Min_cycle;Max_cycle;Signal;HPM_P1;HPM_P2
2023/11/19 00:00:36;;;;;;;0.00;0.00;;;;;;;11.56;100.00;98577.03;7396596;19;20015;-61
2023/11/19 00:03:03;;;;;;;0.30;0.30;;;;;;;11.54;100.00;98573.22;7396489;19;20378;-60
2023/11/19 00:05:29;;;;;;;4.57;0.70;;;;;;;13.13;100.00;98569.84;7395856;19;20015;-61
2023/11/19 00:07:55;;;;;;;0.63;0.40;;;;;;;12.22;100.00;98572.38;7397944;19;20559;-61
2023/11/19 00:10:22;;;;;;;0.28;0.28;;;;;;;13.41;100.00;98573.09;7394732;19;20100;-60
2023/11/19 00:12:49;;;;;;;0.50;0.45;;;;;;;12.38;100.00;98577.09;7396921;19;20010;-61
2023/11/19 00:15:18;;;;;;;3.10;0.77;;;;;;;11.85;100.00;98572.84;7397157;19;20022;-61
2023/11/19 00:17:45;;;;;;;1.23;1.13;;;;;;;11.31;100.00;98580.91;7395038;19;20107;-61
2023/11/19 00:20:12;;;;;;;3.85;0.63;;;;;;;11.05;100.00;98586.03;7397230;19;20021;-61
2023/11/19 00:22:38;;;;;;;0.55;0.45;;;;;;;10.86;100.00;98582.28;7395070;19;20041;-62
2023/11/19 00:25:06;;;;;;;2.90;0.63;;;;;;;12.09;100.00;98573.72;7398503;19;20010;-62
2023/11/19 00:27:32;;;;;;;4.22;1.10;;;;;;;13.94;nan;98568.63;7398110;19;20017;-62
2023/11/19 00:29:58;;;;;;;0.13;0.03;;;;;;;16.08;nan;98540.03;7399853;19;20033;-62
2023/11/19 00:32:24;;;;;;;0.77;0.77;;;;;;;18.34;nan;98546.47;7397326;19;20022;-62
2023/11/19 00:34:50;;;;;;;0.70;0.57;;;;;;;19.91;nan;98548.97;7394962;19;20039;-62
2023/11/19 00:37:17;;;;;;;0.75;0.75;;;;;;;19.34;nan;98551.59;7397924;19;20021;-61
2023/11/19 00:39:43;;;;;;;0.55;0.55;;;;;;;16.74;nan;98571.44;7399696;19;20366;-61
2023/11/19 00:42:10;;;;;;;3.50;0.35;;;;;;;16.75;nan;98566.56;7399557;19;20062;-61
2023/11/19 00:44:36;;;;;;;1.80;0.68;;;;;;;18.30;nan;98567.88;7398252;19;20381;-61
2023/11/19 00:47:03;;;;;;;0.43;0.32;;;;;;;16.24;nan;98552.94;7394138;19;20011;-61
2023/11/19 00:49:29;;;;;;;8.35;1.70;;;;;;;15.31;nan;98536.06;7394171;19;20074;-61
2023/11/19 00:51:55;;;;;;;1.38;0.22;;;;;;;16.37;nan;98555.69;7394627;19;20014;-62
2023/11/19 00:54:21;;;;;;;7.03;0.75;;;;;;;17.64;nan;98550.91;7393771;19;20396;-61
2023/11/19 00:56:48;;;;;;;0.80;0.80;;;;;;;13.77;nan;98551.28;7395157;19;20014;-62
2023/11/19 00:59:15;;;;;;;0.20;0.17;;;;;;;13.94;nan;98563.03;7396815;19;20014;-61
2023/11/19 01:01:41;;;;;;;4.35;1.15;;;;;;;14.51;nan;98559.63;7393109;19;20034;-61
2023/11/19 01:04:08;;;;;;;1.10;0.63;;;;;;;11.31;nan;98567.72;7393524;19;20014;-61
2023/11/19 01:06:34;;;;;;;0.17;0.17;;;;;;;10.99;nan;98557.44;7394986;19;20475;-61
2023/11/19 01:09:02;;;;;;;1.40;0.47;;;;;;;10.90;nan;98552.13;7394833;19;20042;-61
2023/11/19 01:11:28;;;;;;;4.05;0.70;;;;;;;10.89;nan;98543.03;7392344;19;20031;-61
2023/11/19 01:13:54;;;;;;;0.70;0.47;;;;;;;11.62;nan;98540.75;7394930;19;20014;-61
2023/11/19 01:16:21;;;;;;;0.32;0.32;;;;;;;11.74;nan;98537.41;7393783;19;20482;-61
2023/11/19 01:18:48;;;;;;;0.10;0.10;;;;;;;11.94;nan;98542.63;7396379;19;20014;-62
2023/11/19 01:21:15;;;;;;;0.10;0.10;;;;;;;12.67;nan;98537.22;7394368;19;20019;-61
2023/11/19 01:23:45;;;;;;;0.17;0.17;;;;;;;11.35;nan;98554.28;7393739;19;20014;-62
2023/11/19 01:26:12;;;;;;;0.15;0.00;;;;;;;11.34;nan;98543.66;7393218;19;20514;-61
2023/11/19 01:28:44;;;;;;;1.95;1.10;;;;;;;11.34;nan;98550.00;7391590;19;20015;-61
2023/11/19 01:31:12;;;;;;;0.98;0.88;;;;;;;11.17;nan;98557.66;7398184;19;20477;-61
2023/11/19 01:33:40;;;;;;;0.65;0.40;;;;;;;11.39;nan;98551.25;7392460;19;20051;-62
2023/11/19 01:36:07;;;;;;;0.60;0.22;;;;;;;11.33;nan;98553.28;7391633;19;20019;-61
2023/11/19 01:38:36;;;;;;;0.00;0.00;;;;;;;11.30;nan;98537.59;7393158;19;20010;-62
2023/11/19 01:41:03;;;;;;;1.77;0.68;;;;;;;11.39;nan;98537.31;7395651;19;20010;-62
2023/11/19 01:43:34;;;;;;;0.68;0.65;;;;;;;11.51;nan;98535.97;7393622;19;20014;-61
2023/11/19 01:46:00;;;;;;;;;;;;;;;11.79;nan;98547.78;7394082;19;20007;-61
2023/11/19 01:48:27;;;;;;;3.65;0.65;;;;;;;12.60;nan;98537.81;7393327;19;19943;-61
2023/11/19 01:50:53;;;;;;;0.00;0.00;;;;;;;12.52;nan;98534.06;7396739;19;20031;-61
2023/11/19 01:53:20;;;;;;;1.05;0.80;;;;;;;12.27;nan;98538.09;7392771;19;20046;-61
2023/11/19 01:55:47;;;;;;;0.98;0.10;;;;;;;12.28;nan;98534.03;7392300;19;20545;-62
2023/11/19 01:58:14;;;;;;;0.10;0.10;;;;;;;12.22;nan;98541.66;7393182;19;20010;-61
2023/11/19 02:00:41;;;;;;;0.43;0.43;;;;;;;11.88;nan;98525.16;7394064;19;20026;-62
2023/11/19 02:03:08;;;;;;;0.10;0.10;;;;;;;11.89;nan;98525.94;7392330;19;20037;-61
2023/11/19 02:05:35;;;;;;;0.17;0.17;;;;;;;12.30;nan;98537.78;7391656;19;20030;-61
2023/11/19 02:08:02;;;;;;;6.47;0.17;;;;;;;12.05;nan;98528.59;7396093;19;20015;-61
2023/11/19 02:10:28;;;;;;;0.68;0.68;;;;;;;11.88;nan;98527.19;7393678;19;20463;-61
2023/11/19 02:12:55;;;;;;;0.28;0.28;;;;;;;12.72;nan;98517.66;7393030;19;20013;-61
2023/11/19 02:15:24;;;;;;;0.95;0.80;;;;;;;13.54;nan;98520.03;7392294;19;20014;-62
2023/11/19 02:17:53;;;;;;;0.08;0.03;;;;;;;13.28;nan;98533.84;7394096;19;20018;-62
2023/11/19 02:20:20;;;;;;;0.10;0.00;;;;;;;12.97;nan;98534.44;7393721;19;20027;-62
2023/11/19 02:22:47;;;;;;;1.10;0.45;;;;;;;12.70;nan;98536.19;7391998;19;20007;-57
2023/11/19 02:25:24;;;;;;;0.00;0.00;;;;;;;12.37;nan;98519.72;7391416;19;20325;-62
2023/11/19 02:27:57;;;;;;;0.17;0.17;;;;;;;12.16;nan;98516.59;7392289;19;20007;-62
2023/11/19 02:30:26;;;;;;;0.00;0.00;;;;;;;12.73;nan;98519.13;7391998;19;20014;-62
2023/11/19 02:32:54;;;;;;;0.13;0.13;;;;;;;11.78;nan;98515.56;7392694;19;20361;-56
2023/11/19 02:35:21;;;;;;;11.50;0.55;;;;;;;11.97;nan;98515.72;7391555;19;20031;-56
2023/11/19 02:37:47;;;;;;;0.00;0.00;;;;;;;11.86;nan;98513.78;7394498;19;20021;-57
2023/11/19 02:40:14;;;;;;;0.22;0.03;;;;;;;11.60;nan;98513.38;7394434;19;20340;-57
2023/11/19 02:42:41;;;;;;;0.35;0.25;;;;;;;15.80;nan;98500.59;7394661;19;20018;-56
2023/11/19 02:45:13;;;;;;;3.22;1.33;;;;;;;12.42;nan;98504.97;7392504;19;20467;-58
2023/11/19 02:47:44;;;;;;;0.80;0.80;;;;;;;14.01;nan;98509.22;7391709;19;20010;-57
2023/11/19 02:50:14;;;;;;;9.43;1.60;;;;;;;12.25;nan;98513.50;7390853;19;20018;-56
2023/11/19 02:52:45;;;;;;;0.20;0.20;;;;;;;11.93;nan;98510.41;7391103;19;20018;-57
2023/11/19 02:55:12;;;;;;;0.10;0.00;;;;;;;11.95;nan;98507.13;7392713;19;20035;-56
2023/11/19 02:57:48;;;;;;;7.82;0.70;;;;;;;11.75;nan;98508.25;7390938;19;20493;-56
2023/11/19 03:00:23;;;;;;;2.10;0.35;;;;;;;13.42;nan;98505.47;7394562;19;20011;-57
2023/11/19 03:02:58;;;;;;;10.25;1.33;;;;;;;15.12;nan;98506.06;7390533;19;20074;-57
2023/11/19 03:05:26;;;;;;;0.15;0.05;;;;;;;12.11;nan;98495.84;7390465;19;20343;-57
2023/11/19 03:07:52;;;;;;;0.10;0.00;;;;;;;11.85;nan;98509.44;7392526;19;20026;-57
2023/11/19 03:10:19;;;;;;;1.77;0.28;;;;;;;11.79;nan;98488.44;7392640;19;20019;-61
2023/11/19 03:12:47;;;;;;;0.10;0.10;;;;;;;11.83;nan;98484.09;7395855;19;20035;-57
2023/11/19 03:15:14;;;;;;;0.38;0.38;;;;;;;11.64;nan;98493.59;7398932;19;20081;-57
2023/11/19 03:17:41;;;;;;;0.10;0.00;;;;;;;11.79;nan;98480.84;7398653;19;20007;-57
2023/11/19 03:20:09;;;;;;;0.90;0.65;;;;;;;11.30;nan;98498.56;7401931;19;20015;-57
2023/11/19 03:22:38;;;;;;;2.90;1.08;;;;;;;11.10;nan;98504.47;7394503;19;20121;-57
2023/11/19 03:25:08;;;;;;;0.10;0.10;;;;;;;11.35;nan;98495.00;7395857;19;20002;-57
2023/11/19 03:27:38;;;;;;;4.28;0.20;;;;;;;15.92;nan;98505.41;7393763;19;20361;-56
2023/11/19 03:30:06;;;;;;;0.22;0.22;;;;;;;12.88;nan;98496.41;7393853;19;20471;-57
2023/11/19 03:32:34;;;;;;;0.65;0.63;;;;;;;11.38;nan;98488.41;7393695;19;20045;-56
2023/11/19 03:35:04;;;;;;;0.55;0.55;;;;;;;11.04;nan;98495.38;7395862;19;20014;-57
2023/11/19 03:37:32;;;;;;;8.40;0.52;;;;;;;11.13;nan;98495.09;7398454;19;20474;-57
2023/11/19 03:39:59;;;;;;;0.10;0.10;;;;;;;11.15;nan;98492.56;7398256;19;20014;-57
2023/11/19 03:42:26;;;;;;;0.35;0.20;;;;;;;11.47;nan;98484.56;7398188;19;20010;-56
2023/11/19 03:44:53;;;;;;;10.32;0.40;;;;;;;11.38;nan;98485.59;7400604;19;20014;-57
2023/11/19 03:47:20;;;;;;;0.40;0.22;;;;;;;11.21;nan;98491.28;7396612;19;20015;-57
2023/11/19 03:49:49;;;;;;;0.20;0.20;;;;;;;11.47;nan;98481.75;7396211;19;20002;-56
2023/11/19 03:52:17;;;;;;;0.10;0.05;;;;;;;11.84;nan;98482.09;7398547;19;20481;-57
2023/11/19 03:54:44;;;;;;;0.40;0.10;;;;;;;12.34;nan;98481.69;7394618;19;20025;-57
2023/11/19 03:57:15;;;;;;;5.47;1.17;;;;;;;11.92;nan;98486.59;7394869;19;20014;-56
2023/11/19 03:59:42;;;;;;;1.08;0.38;;;;;;;11.98;nan;98481.72;7394681;19;20010;-56
2023/11/19 04:02:08;;;;;;;1.52;0.40;;;;;;;12.14;nan;98492.00;7396373;19;20028;-57
2023/11/19 04:04:35;;;;;;;7.82;1.90;;;;;;;12.72;nan;98491.75;7394116;19;20408;-57
2023/11/19 04:07:04;;;;;;;0.10;0.00;;;;;;;11.90;nan;98480.00;7396517;19;20007;-57
2023/11/19 04:09:35;;;;;;;0.10;0.10;;;;;;;13.12;nan;98482.44;7396872;19;20023;-56
2023/11/19 04:12:03;;;;;;;0.00;0.00;;;;;;;13.16;nan;98482.91;7396614;19;20018;-57
2023/11/19 04:14:30;;;;;;;0.10;0.00;;;;;;;12.12;nan;98471.47;7398099;19;20464;-56
2023/11/19 04:16:57;;;;;;;0.00;0.00;;;;;;;12.07;nan;98475.06;7394924;19;20369;-57
2023/11/19 04:19:24;;;;;;;5.60;1.45;;;;;;;11.71;nan;98482.69;7398265;19;20018;-57
2023/11/19 04:21:52;;;;;;;0.35;0.10;;;;;;;11.88;nan;98490.94;7395922;19;20011;-56
2023/11/19 04:24:18;;;;;;;4.68;1.27;;;;;;;11.87;nan;98495.75;7393491;19;20011;-57
2023/11/19 04:26:45;;;;;;;0.10;0.00;;;;;;;12.84;nan;98491.09;7394997;19;20040;-57
2023/11/19 04:29:14;;;;;;;0.10;0.00;;;;;;;11.67;nan;98487.78;7394400;19;20078;-57
2023/11/19 04:31:41;;;;;;;0.15;0.10;;;;;;;11.66;nan;98480.66;7399218;19;20018;-57
2023/11/19 04:34:07;;;;;;;0.32;0.32;;;;;;;11.64;nan;98482.44;7395870;19;20049;-57
2023/11/19 04:36:34;;;;;;;0.10;0.00;;;;;;;11.44;nan;98486.34;7393528;19;20031;-57
2023/11/19 04:39:01;;;;;;;8.07;0.82;;;;;;;11.25;nan;98491.00;7393388;19;20014;-57
2023/11/19 04:41:30;;;;;;;0.10;0.10;;;;;;;11.30;nan;98487.44;7398432;19;20022;-57
2023/11/19 04:43:56;;;;;;;0.30;0.30;;;;;;;13.40;nan;98491.25;7395436;19;20349;-57
2023/11/19 04:46:23;;;;;;;0.30;0.30;;;;;;;12.53;nan;98493.72;7394148;19;20010;-57
2023/11/19 04:48:50;;;;;;;0.35;0.30;;;;;;;12.30;nan;98503.56;7391948;19;20356;-57
2023/11/19 04:51:16;;;;;;;0.10;0.00;;;;;;;14.17;nan;98483.00;7398033;19;20364;-57
2023/11/19 04:53:43;;;;;;;0.10;0.00;;;;;;;12.39;nan;98480.91;7394393;19;20009;-57
2023/11/19 04:56:10;;;;;;;1.42;0.65;;;;;;;12.24;nan;98472.88;7398593;19;20014;-57
2023/11/19 04:58:37;;;;;;;0.15;0.10;;;;;;;12.41;nan;98469.97;7393823;19;20409;-57
2023/11/19 05:01:04;;;;;;;0.10;0.00;;;;;;;12.96;nan;98474.97;7397107;19;20006;-56
2023/11/19 05:03:32;;;;;;;0.10;0.10;;;;;;;14.48;nan;98468.28;7397744;19;20015;-57
2023/11/19 05:05:59;;;;;;;0.00;0.00;;;;;;;12.50;nan;98472.41;7392770;19;20440;-56
2023/11/19 05:08:25;;;;;;;0.10;0.10;;;;;;;14.13;nan;98466.53;7395531;19;20015;-56
2023/11/19 05:10:51;;;;;;;26.90;1.17;;;;;;;14.40;nan;98470.19;7396544;19;20022;-56
2023/11/19 05:13:17;;;;;;;0.90;0.43;;;;;;;14.21;nan;98461.81;7397927;19;20007;-56
2023/11/19 05:15:43;;;;;;;0.47;0.47;;;;;;;22.68;nan;98458.19;7393528;19;20039;-56
2023/11/19 05:18:09;;;;;;;0.10;0.00;;;;;;;14.02;nan;98460.34;7394198;19;20022;-56
2023/11/19 05:20:36;;;;;;;4.78;0.38;;;;;;;24.60;nan;98447.47;7395049;19;20015;-56
2023/11/19 05:23:02;;;;;;;0.65;0.28;;;;;;;15.36;nan;98465.03;7396304;19;20357;-57
2023/11/19 05:25:28;;;;;;;0.65;0.43;;;;;;;12.66;nan;98463.88;7393471;19;20025;-56
2023/11/19 05:27:54;;;;;;;0.80;0.38;;;;;;;12.17;nan;98457.47;7392852;19;20010;-57
2023/11/19 05:30:20;;;;;;;1.33;0.10;;;;;;;11.68;nan;98466.97;7393515;19;20855;-57
2023/11/19 05:32:46;;;;;;;0.10;0.10;;;;;;;17.28;nan;98458.00;7395806;19;20014;-57
2023/11/19 05:35:13;;;;;;;0.15;0.15;;;;;;;15.18;nan;98456.22;7390827;19;20339;-57
2023/11/19 05:37:39;;;;;;;0.10;0.00;;;;;;;12.33;nan;98463.44;7394849;19;20017;-57
2023/11/19 05:40:14;;;;;;;1.10;0.90;;;;;;;15.51;nan;98443.56;7390879;19;20026;-56
2023/11/19 05:42:41;;;;;;;0.10;0.10;;;;;;;29.10;nan;98427.69;7397236;19;20018;-57
2023/11/19 05:45:09;;;;;;;0.00;0.00;;;;;;;22.80;nan;98430.00;7392878;19;20007;-57
2023/11/19 05:47:35;;;;;;;0.32;0.30;;;;;;;21.52;nan;98426.97;7392120;19;20463;-57
2023/11/19 05:50:02;;;;;;;0.00;0.00;;;;;;;22.63;nan;98421.59;7391969;19;20025;-57
2023/11/19 05:52:33;;;;;;;0.13;0.10;;;;;;;15.59;nan;98404.38;7396384;19;20491;-57
2023/11/19 05:55:03;;;;;;;0.17;0.17;;;;;;;16.14;nan;98417.06;7393435;19;20018;-57
2023/11/19 05:57:29;;;;;;;0.30;0.10;;;;;;;16.20;nan;98416.97;7390628;19;20550;-56
2023/11/19 05:59:56;;;;;;;5.97;1.45;;;;;;;13.95;nan;98410.59;7392277;19;20014;-56
2023/11/19 06:02:22;;;;;;;8.57;0.47;;;;;;;19.49;nan;98418.88;7395022;19;20340;-56
2023/11/19 06:04:49;;;;;;;0.73;0.17;;;;;;;13.18;nan;98416.06;7391535;19;20303;-56
2023/11/19 06:07:15;;;;;;;4.00;0.40;;;;;;;11.98;nan;98434.28;7395089;19;20038;-56
2023/11/19 06:09:42;;;;;;;0.63;0.63;;;;;;;12.01;nan;98427.69;7390102;19;20045;-56
2023/11/19 06:12:08;;;;;;;4.68;1.10;;;;;;;11.50;nan;98428.50;7394845;19;20010;-56
2023/11/19 06:14:34;;;;;;;1.10;0.52;;;;;;;11.92;nan;98436.38;7389951;19;20014;-57
2023/11/19 06:17:00;;;;;;;0.57;0.57;;;;;;;18.17;nan;98425.03;7392269;19;20011;-57
2023/11/19 06:19:26;;;;;;;1.27;0.68;;;;;;;14.47;nan;98429.59;7392029;19;20078;-57
2023/11/19 06:21:52;;;;;;;3.72;1.00;;;;;;;29.27;nan;98412.06;7395289;19;20415;-57
2023/11/19 06:24:19;;;;;;;0.10;0.10;;;;;;;28.51;nan;98409.53;7392028;19;20015;-57
2023/11/19 06:26:45;;;;;;;0.32;0.32;;;;;;;21.84;nan;98418.25;7391248;19;20010;-56
2023/11/19 06:29:11;;;;;;;3.20;0.70;;;;;;;15.23;nan;98423.75;7388873;19;20023;-56
2023/11/19 06:31:41;;;;;;;0.63;0.43;;;;;;;14.06;nan;98425.16;7393029;19;20015;-56
2023/11/19 06:34:07;;;;;;;0.15;0.15;;;;;;;16.22;nan;98426.31;7391067;19;20053;-56
2023/11/19 06:36:33;;;;;;;0.10;0.10;;;;;;;33.09;nan;98401.94;7392223;19;20074;-56
2023/11/19 06:38:59;;;;;;;0.08;0.00;;;;;;;35.99;nan;98376.47;7390967;19;20011;-56
2023/11/19 06:41:27;;;;;;;0.00;0.00;;;;;;;36.10;nan;98386.13;7393141;19;20407;-56
2023/11/19 06:43:53;;;;;;;7.70;0.65;;;;;;;33.57;nan;98386.25;7390672;19;20074;-56
2023/11/19 06:46:19;;;;;;;6.97;0.60;;;;;;;19.12;nan;98411.25;7390345;19;20070;-56
2023/11/19 06:48:46;;;;;;;5.00;0.88;;;;;;;14.44;nan;98423.03;7397046;19;20498;-57
2023/11/19 06:51:12;;;;;;;0.40;0.40;;;;;;;12.98;nan;98416.53;7400017;19;20015;-57
2023/11/19 06:53:41;;;;;;;1.17;0.63;;;;;;;12.41;nan;98422.50;7398553;19;20030;-57
2023/11/19 06:56:24;;;;;;;0.10;0.10;;;;;;;12.15;nan;98426.53;7399535;19;20019;-56
2023/11/19 06:58:51;;;;;;;0.40;0.20;;;;;;;11.89;nan;98420.66;7397264;19;20032;-56
2023/11/19 07:01:18;;;;;;;0.17;0.15;;;;;;;11.98;nan;98423.13;7397876;19;20337;-56
2023/11/19 07:03:47;;;;;;;0.10;0.10;;;;;;;12.09;nan;98428.63;7396840;19;20018;-56
2023/11/19 07:06:14;;;;;;;2.08;0.35;;;;;;;27.30;nan;98413.44;7397776;19;20104;-56
2023/11/19 07:08:46;;;;;;;0.10;0.10;;;;;;;14.07;nan;98423.88;7396460;19;20460;-56
2023/11/19 07:11:17;;;;;;;0.82;0.68;;;;;;;13.29;nan;98417.94;7396863;19;20048;-57
2023/11/19 07:13:43;;;;;;;0.10;0.10;;;;;;;12.31;nan;98421.31;7399566;19;20018;-56
2023/11/19 07:16:11;;;;;;;0.10;0.10;;;;;;;12.09;nan;98425.84;7397803;19;20066;-56
2023/11/19 07:18:38;;;;;;;1.10;0.35;;;;;;;11.98;nan;98414.75;7397916;19;20034;-56
2023/11/19 07:21:04;;;;;;;0.10;0.10;;;;;;;12.81;nan;98425.13;7397509;19;20078;-57
2023/11/19 07:23:31;;;;;;;0.88;0.45;;;;;;;12.09;nan;98411.88;7400251;19;20014;-57
2023/11/19 07:25:57;;;;;;;0.63;0.63;;;;;;;11.69;nan;98423.13;7397124;19;20717;-57
2023/11/19 07:28:23;;;;;;;0.20;0.20;;;;;;;11.81;nan;98419.72;7398614;19;20017;-57
2023/11/19 07:30:49;;;;;;;5.38;0.50;;;;;;;11.72;nan;98411.66;7398756;19;20015;-57
2023/11/19 07:33:15;;;;;;;0.13;0.13;;;;;;;11.49;nan;98421.44;7401739;19;20039;-56
2023/11/19 07:35:42;;;;;;;0.10;0.00;;;;;;;11.71;nan;98424.13;7396519;19;20030;-56
2023/11/19 07:38:08;;;;;;;0.10;0.10;;;;;;;11.43;nan;98423.50;7400148;19;20007;-56
2023/11/19 07:40:34;;;;;;;0.10;0.00;;;;;;;11.30;nan;98426.13;7395909;19;20354;-56
2023/11/19 07:43:00;;;;;;;0.05;0.00;;;;;;;11.42;nan;98424.78;7399866;19;20486;-56
2023/11/19 07:45:27;;;;;;;2.30;0.90;;;;;;;11.47;nan;98418.41;7395675;19;20010;-57
2023/11/19 07:47:54;;;;;;;0.90;0.47;;;;;;;11.55;nan;98416.56;7397099;19;20018;-56
2023/11/19 07:50:20;;;;;;;8.35;0.63;;;;;;;11.96;nan;98420.09;7394655;19;20018;-57
2023/11/19 07:52:46;;;;;;;0.55;0.10;;;;;;;11.99;nan;98430.25;7399481;19;20010;-56
2023/11/19 07:55:13;;;;;;;0.03;0.00;;;;;;;11.61;nan;98427.72;7397140;19;20736;-56
2023/11/19 07:57:39;;;;;;;0.28;0.28;;;;;;;11.56;nan;98426.47;7395623;19;20007;-56
2023/11/19 08:00:06;;;;;;;0.38;0.38;;;;;;;11.43;nan;98423.50;7396039;19;20010;-57
2023/11/19 08:02:39;;;;;;;3.13;0.95;;;;;;;11.50;nan;98422.19;7399262;19;20022;-56
2023/11/19 08:05:05;;;;;;;0.90;0.65;;;;;;;11.53;nan;98426.72;7396006;19;20463;-57
2023/11/19 08:07:31;;;;;;;0.30;0.20;;;;;;;11.71;nan;98426.91;7398120;19;20125;-57
2023/11/19 08:09:58;;;;;;;0.10;0.10;;;;;;;11.65;nan;98423.34;7393850;19;20010;-56
2023/11/19 08:12:24;;;;;;;0.20;0.20;;;;;;;11.78;nan;98429.09;7398144;19;20013;-56
2023/11/19 08:14:50;;;;;;;2.20;0.38;;;;;;;11.81;nan;98442.03;7395090;19;20018;-56
2023/11/19 08:17:16;;;;;;;0.40;0.10;;;;;;;11.89;nan;98431.81;7395388;19;20483;-56
2023/11/19 08:19:42;;;;;;;1.95;0.38;;;;;;;12.27;nan;98432.03;7394947;19;20464;-57
2023/11/19 08:22:09;;;;;;;0.82;0.40;;;;;;;11.94;nan;98431.03;7397872;19;20690;-56
2023/11/19 08:24:35;;;;;;;0.10;0.00;;;;;;;12.10;nan;98444.09;7395480;19;20345;-56
2023/11/19 08:27:01;;;;;;;0.55;0.17;;;;;;;12.16;nan;98436.44;7396060;19;20463;-57
2023/11/19 08:29:28;;;;;;;0.30;0.30;;;;;;;13.79;nan;98420.78;7393899;19;20019;-56
2023/11/19 08:31:54;;;;;;;0.40;0.22;;;;;;;14.31;nan;98409.00;7396689;19;20459;-56
2023/11/19 08:34:20;;;;;;;0.22;0.22;;;;;;;12.39;nan;98417.44;7399817;19;20022;-56
2023/11/19 08:36:50;;;;;;;2.80;0.82;;;;;;;12.38;nan;98415.16;7396445;19;20021;-56
2023/11/19 08:39:16;;;;;;;0.25;0.25;;;;;;;12.21;nan;98425.75;7394470;19;20017;-56
2023/11/19 08:41:43;;;;;;;2.15;0.77;;;;;;;12.27;nan;98426.44;7396440;19;20014;-56
2023/11/19 08:44:09;;;;;;;2.53;1.35;;;;;;;12.61;nan;98428.38;7399227;19;20010;-56
2023/11/19 08:46:35;;;;;;;1.13;0.98;;;;;;;14.33;nan;98423.97;7393748;19;20459;-56
2023/11/19 08:49:01;;;;;;;3.03;1.60;;;;;;;12.53;nan;98432.28;7393265;19;20016;-56
2023/11/19 08:51:28;;;;;;;1.63;0.60;;;;;;;16.11;nan;98418.19;7393582;19;20047;-56
2023/11/19 08:53:54;;;;;;;8.32;0.95;;;;;;;12.61;nan;98439.53;7397951;19;20490;-56
2023/11/19 08:56:20;;;;;;;5.13;1.50;;;;;;;12.48;nan;98435.88;7394286;19;20022;-56
2023/11/19 08:58:46;;;;;;;1.95;0.73;;;;;;;12.14;nan;98430.63;7394250;19;20052;-56
2023/11/19 09:01:12;;;;;;;1.00;0.57;;;;;;;11.94;nan;98442.19;7394089;19;20066;-56
2023/11/19 09:03:38;;;;;;;5.90;1.63;;;;;;;11.94;nan;98438.63;7395465;19;20010;-56
2023/11/19 09:06:05;;;;;;;0.60;0.45;;;;;;;11.99;nan;98430.25;7394259;19;20018;-56
2023/11/19 09:08:31;;;;;;;0.90;0.65;;;;;;;12.22;nan;98432.81;7398234;19;20010;-56
2023/11/19 09:10:57;;;;;;;2.70;0.88;;;;;;;11.98;nan;98423.13;7394055;19;20469;-57
2023/11/19 09:13:23;;;;;;;0.55;0.50;;;;;;;12.00;nan;98417.03;7394964;19;20483;-56
2023/11/19 09:15:49;;;;;;;0.88;0.73;;;;;;;12.12;nan;98416.44;7390444;19;20022;-56
2023/11/19 09:18:15;;;;;;;0.45;0.40;;;;;;;12.23;nan;98415.56;7392515;19;20015;-56
2023/11/19 09:20:41;;;;;;;1.30;0.85;;;;;;;12.71;nan;98423.19;7394356;19;20018;-56
2023/11/19 09:23:08;;;;;;;0.50;0.50;;;;;;;12.98;nan;98413.72;7395100;19;20015;-57
2023/11/19 09:25:34;;;;;;;2.70;0.68;;;;;;;12.83;nan;98416.19;7393119;19;20474;-56
2023/11/19 09:28:01;;;;;;;0.80;0.63;;;;;;;12.60;nan;98407.31;7394005;19;20006;-56
2023/11/19 09:30:27;;;;;;;0.00;0.00;;;;;;;13.03;nan;98412.91;7392821;19;20018;-56
2023/11/19 09:32:53;;;;;;;2.50;0.65;;;;;;;13.42;nan;98404.78;7394547;19;20015;-56
2023/11/19 09:35:19;;;;;;;1.42;0.17;;;;;;;12.89;nan;98416.88;7393517;19;20035;-56
2023/11/19 09:37:45;;;;;;;0.35;0.35;;;;;;;12.96;nan;98416.28;7396383;19;20018;-56
2023/11/19 09:40:11;;;;;;;0.25;0.20;;;;;;;12.88;nan;98407.00;7396103;19;20806;-56
2023/11/19 09:42:46;;;;;;;3.92;0.80;;;;;;;13.00;nan;98402.78;7397005;19;20014;-56
2023/11/19 09:45:15;;;;;;;0.10;0.00;;;;;;;13.01;nan;98393.13;7397223;19;20459;-56
2023/11/19 09:47:45;;;;;;;0.55;0.20;;;;;;;12.87;nan;98397.84;7396699;19;20632;-56
2023/11/19 09:50:19;;;;;;;4.10;0.73;;;;;;;12.82;nan;98397.94;7395456;19;20011;-56
2023/11/19 09:52:47;;;;;;;2.58;0.90;;;;;;;17.02;nan;98393.53;7396119;19;20343;-56
2023/11/19 09:55:14;;;;;;;0.10;0.00;;;;;;;15.12;nan;98393.88;7393583;19;20011;-56
2023/11/19 09:57:41;;;;;;;0.22;0.22;;;;;;;13.47;nan;98389.97;7392243;19;20013;-56
2023/11/19 10:00:10;;;;;;;0.32;0.10;;;;;;;13.12;nan;98395.81;7393290;19;20025;-56
2023/11/19 10:02:36;;;;;;;0.03;0.03;;;;;;;12.64;nan;98398.66;7392913;19;20467;-56
2023/11/19 10:05:06;;;;;;;0.00;0.00;;;;;;;12.49;nan;98398.31;7392412;19;20015;-56
2023/11/19 10:07:34;;;;;;;0.00;0.00;;;;;;;12.36;nan;98401.75;7395854;19;20022;-56
2023/11/19 10:10:01;;;;;;;6.80;0.43;;;;;;;12.44;nan;98405.47;7392471;19;20018;-56
2023/11/19 10:12:28;;;;;;;0.68;0.68;;;;;;;12.67;nan;98392.00;7392041;19;20010;-56
2023/11/19 10:14:56;;;;;;;0.10;0.10;;;;;;;12.56;nan;98397.72;7392604;19;20017;-56
2023/11/19 10:17:33;;;;;;;0.77;0.68;;;;;;;12.56;nan;98398.47;7392157;19;20014;-56
2023/11/19 10:19:59;;;;;;;0.20;0.20;;;;;;;13.83;nan;98392.47;7393170;19;20025;-56
2023/11/19 10:22:27;;;;;;;1.00;0.13;;;;;;;12.64;nan;98401.44;7398228;19;20017;-56
2023/11/19 10:24:54;;;;;;;0.47;0.45;;;;;;;12.64;nan;98399.41;7399715;19;20018;-56
2023/11/19 10:27:20;;;;;;;3.30;0.30;;;;;;;12.71;nan;98387.63;7398783;19;20361;-56
2023/11/19 10:29:47;;;;;;;5.75;0.57;;;;;;;12.63;nan;98397.13;7397602;19;20035;-56
2023/11/19 10:32:16;;;;;;;0.10;0.00;;;;;;;12.60;nan;98389.81;7399685;19;20018;-56
2023/11/19 10:34:43;;;;;;;0.30;0.30;;;;;;;12.57;nan;98388.81;7399304;19;20119;-56
2023/11/19 10:37:26;;;;;;;1.65;0.45;;;;;;;12.64;nan;98387.47;7401212;19;20014;-56
2023/11/19 10:39:54;;;;;;;0.40;0.40;;;;;;;13.23;nan;98386.50;7399452;19;20006;-56
2023/11/19 10:42:20;;;;;;;0.10;0.10;;;;;;;13.03;nan;98389.78;7402839;19;20062;-56
2023/11/19 10:44:46;;;;;;;0.00;0.00;;;;;;;15.46;nan;98377.13;7403557;19;20035;-56
2023/11/19 10:47:19;;;;;;;0.05;0.00;;;;;;;15.12;nan;98382.69;7399716;19;20006;-57
2023/11/19 10:49:45;;;;;;;0.30;0.10;;;;;;;15.53;nan;98378.47;7397301;19;20021;-56
2023/11/19 10:52:17;;;;;;;0.15;0.13;;;;;;;14.31;nan;98375.38;7399331;19;20059;-60
2023/11/19 10:54:44;;;;;;;0.32;0.22;;;;;;;14.29;nan;98377.97;7403655;19;20007;-56
2023/11/19 10:57:16;;;;;;;0.68;0.10;;;;;;;15.41;nan;98374.41;7398624;19;20014;-57
2023/11/19 10:59:45;;;;;;;0.10;0.10;;;;;;;14.67;nan;98370.09;7397359;19;20007;-56
2023/11/19 11:02:16;;;;;;;1.50;0.22;;;;;;;14.08;nan;98368.63;7398772;19;20410;-56
2023/11/19 11:04:43;;;;;;;0.00;0.00;;;;;;;13.76;nan;98360.28;7403581;19;20102;-56
2023/11/19 11:07:10;;;;;;;1.13;0.25;;;;;;;13.73;nan;98366.19;7400781;19;20045;-57
2023/11/19 11:09:36;;;;;;;1.77;0.52;;;;;;;13.52;nan;98372.34;7395819;19;20247;-56
2023/11/19 11:12:06;;;;;;;0.20;0.00;;;;;;;13.45;nan;98358.97;7396790;19;20014;-56
2023/11/19 11:14:35;;;;;;;0.10;0.10;;;;;;;13.31;nan;98363.00;7400469;19;20015;-56
2023/11/19 11:17:02;;;;;;;0.30;0.20;;;;;;;13.30;nan;98361.47;7397406;19;20019;-57
2023/11/19 11:19:29;;;;;;;0.55;0.20;;;;;;;13.41;nan;98364.13;7397863;19;20007;-56
2023/11/19 11:21:56;;;;;;;0.00;0.00;;;;;;;13.45;nan;98370.16;7397780;19;20451;-60
2023/11/19 11:24:38;;;;;;;1.90;0.28;;;;;;;13.44;nan;98362.31;7401650;19;20022;-57
2023/11/19 11:27:22;;;;;;;0.00;0.00;;;;;;;13.50;nan;98360.94;7397153;19;20042;-55
2023/11/19 11:30:03;;;;;;;0.10;0.10;;;;;;;13.59;nan;98366.13;7396350;19;20015;-56
2023/11/19 11:32:33;;;;;;;0.10;0.10;;;;;;;13.83;nan;98358.91;7397345;19;20017;-56
2023/11/19 11:35:27;;;;;;;0.80;0.32;;;;;;;13.70;nan;98359.63;7397888;19;20045;-56
2023/11/19 11:38:06;;;;;;;1.20;0.47;;;;;;;13.76;nan;98357.47;7401480;19;20015;-56
2023/11/19 11:40:33;;;;;;;0.90;0.43;;;;;;;13.76;nan;98342.72;7398369;19;20097;-55
2023/11/19 11:42:59;;;;;;;0.68;0.30;;;;;;;13.64;nan;98354.09;7397592;19;20459;-56
2023/11/19 11:45:43;;;;;;;3.38;0.47;;;;;;;13.78;nan;98346.50;7395568;19;20096;-55
2023/11/19 11:48:15;;;;;;;0.85;0.38;;;;;;;13.78;nan;98340.91;7397463;19;20018;-56
2023/11/19 11:53:05;;;;;;;0.30;0.22;;;;;;;13.36;100.00;98345.38;7428609;19;20314;-89